sensor_id;sensor_type;location;lat;lon;timestamp;pressure;altitude;pressure_sealevel;temperature;humidity
49627;BME280;35527;54.616;39.786;2023-07-13T00:01:16;99097.44;;;10.63;100.00
49627;BME280;35527;54.616;39.786;2023-07-13T00:04:22;99118.75;;;10.68;100.00
49627;BME280;35527;54.616;39.786;2023-07-13T00:07:25;99107.94;;;10.60;100.00
49627;BME280;35527;54.616;39.786;2023-07-13T00:10:28;99102.75;;;10.60;100.00
49627;BME280;35527;54.616;39.786;2023-07-13T00:13:31;99114.94;;;10.58;100.00
49627;BME280;35527;54.616;39.786;2023-07-13T00:16:37;99086.94;;;10.49;100.00
49627;BME280;35527;54.616;39.786;2023-07-13T00:19:40;99079.13;;;10.50;100.00
49627;BME280;35527;54.616;39.786;2023-07-13T00:22:43;99088.59;;;10.50;100.00
49627;BME280;35527;54.616;39.786;2023-07-13T00:25:46;99085.75;;;10.56;100.00
49627;BME280;35527;54.616;39.786;2023-07-13T00:28:53;99073.03;;;10.51;100.00
49627;BME280;35527;54.616;39.786;2023-07-13T00:31:57;99107.47;;;10.69;100.00
49627;BME280;35527;54.616;39.786;2023-07-13T00:35:00;99097.06;;;10.71;100.00
49627;BME280;35527;54.616;39.786;2023-07-13T00:38:04;99097.06;;;10.71;100.00
49627;BME280;35527;54.616;39.786;2023-07-13T00:41:10;99098.41;;;10.78;100.00
49627;BME280;35527;54.616;39.786;2023-07-13T00:44:19;99087.22;;;10.77;100.00
49627;BME280;35527;54.616;39.786;2023-07-13T00:47:28;99100.09;;;10.79;100.00
49627;BME280;35527;54.616;39.786;2023-07-13T00:50:32;99099.16;;;10.80;100.00
49627;BME280;35527;54.616;39.786;2023-07-13T00:53:37;99087.59;;;10.70;100.00
49627;BME280;35527;54.616;39.786;2023-07-13T00:56:41;99076.72;;;10.63;100.00
49627;BME280;35527;54.616;39.786;2023-07-13T00:59:54;99097.56;;;10.77;100.00
49627;BME280;35527;54.616;39.786;2023-07-13T01:02:59;99099.22;;;10.78;100.00
49627;BME280;35527;54.616;39.786;2023-07-13T01:06:05;99097.56;;;10.77;100.00
49627;BME280;35527;54.616;39.786;2023-07-13T01:09:08;99091.03;;;10.70;100.00
49627;BME280;35527;54.616;39.786;2023-07-13T01:12:13;99081.53;;;10.71;100.00
49627;BME280;35527;54.616;39.786;2023-07-13T01:18:39;99101.22;;;10.91;100.00
49627;BME280;35527;54.616;39.786;2023-07-13T01:21:42;99095.25;;;10.89;100.00
49627;BME280;35527;54.616;39.786;2023-07-13T01:24:47;99094.16;;;10.93;100.00
49627;BME280;35527;54.616;39.786;2023-07-13T01:27:52;99088.94;;;10.94;100.00
49627;BME280;35527;54.616;39.786;2023-07-13T01:31:00;99092.03;;;11.01;100.00
49627;BME280;35527;54.616;39.786;2023-07-13T01:34:04;99098.78;;;11.03;100.00
49627;BME280;35527;54.616;39.786;2023-07-13T01:37:07;99100.38;;;11.06;100.00
49627;BME280;35527;54.616;39.786;2023-07-13T01:40:15;99084.19;;;11.02;100.00
49627;BME280;35527;54.616;39.786;2023-07-13T01:43:23;99073.22;;;10.97;100.00
49627;BME280;35527;54.616;39.786;2023-07-13T01:46:28;99072.41;;;10.97;100.00
49627;BME280;35527;54.616;39.786;2023-07-13T01:49:32;99088.81;;;11.13;100.00
49627;BME280;35527;54.616;39.786;2023-07-13T01:52:39;99072.50;;;11.11;100.00
49627;BME280;35527;54.616;39.786;2023-07-13T01:55:42;99086.72;;;11.20;100.00
49627;BME280;35527;54.616;39.786;2023-07-13T01:58:47;99085.47;;;11.27;100.00
49627;BME280;35527;54.616;39.786;2023-07-13T02:01:50;99080.81;;;11.34;100.00
49627;BME280;35527;54.616;39.786;2023-07-13T02:04:56;99090.06;;;11.38;100.00
49627;BME280;35527;54.616;39.786;2023-07-13T02:08:00;99074.63;;;11.36;100.00
49627;BME280;35527;54.616;39.786;2023-07-13T02:11:06;99067.69;;;11.37;100.00
49627;BME280;35527;54.616;39.786;2023-07-13T02:14:09;99083.16;;;11.54;100.00
49627;BME280;35527;54.616;39.786;2023-07-13T02:17:19;99062.66;;;11.49;100.00
49627;BME280;35527;54.616;39.786;2023-07-13T02:20:24;99074.78;;;11.65;100.00
49627;BME280;35527;54.616;39.786;2023-07-13T02:23:30;99062.56;;;11.67;100.00
49627;BME280;35527;54.616;39.786;2023-07-13T02:26:34;99074.34;;;11.72;100.00
49627;BME280;35527;54.616;39.786;2023-07-13T02:29:38;99070.50;;;11.80;100.00
49627;BME280;35527;54.616;39.786;2023-07-13T02:32:43;99062.91;;;11.77;100.00
49627;BME280;35527;54.616;39.786;2023-07-13T02:35:47;99051.00;;;11.72;100.00
49627;BME280;35527;54.616;39.786;2023-07-13T02:38:50;99061.56;;;11.85;100.00
49627;BME280;35527;54.616;39.786;2023-07-13T02:41:56;99086.63;;;12.01;100.00
49627;BME280;35527;54.616;39.786;2023-07-13T02:44:59;99052.78;;;11.88;100.00
49627;BME280;35527;54.616;39.786;2023-07-13T02:48:02;99068.75;;;11.96;100.00
49627;BME280;35527;54.616;39.786;2023-07-13T02:51:05;99054.84;;;11.97;100.00
49627;BME280;35527;54.616;39.786;2023-07-13T02:54:09;99056.44;;;12.00;100.00
49627;BME280;35527;54.616;39.786;2023-07-13T02:57:14;99067.53;;;12.02;100.00
49627;BME280;35527;54.616;39.786;2023-07-13T03:00:18;99069.13;;;12.04;100.00
49627;BME280;35527;54.616;39.786;2023-07-13T03:03:21;99073.34;;;12.21;100.00
49627;BME280;35527;54.616;39.786;2023-07-13T03:06:25;99045.47;;;12.10;100.00
49627;BME280;35527;54.616;39.786;2023-07-13T03:09:35;99050.84;;;12.22;100.00
49627;BME280;35527;54.616;39.786;2023-07-13T03:12:43;99035.44;;;12.18;100.00
49627;BME280;35527;54.616;39.786;2023-07-13T03:15:54;99075.44;;;12.45;100.00
49627;BME280;35527;54.616;39.786;2023-07-13T03:18:57;99062.66;;;12.42;100.00
49627;BME280;35527;54.616;39.786;2023-07-13T03:22:03;99043.94;;;12.36;100.00
49627;BME280;35527;54.616;39.786;2023-07-13T03:25:07;99058.84;;;12.47;100.00
49627;BME280;35527;54.616;39.786;2023-07-13T03:28:12;99064.44;;;12.55;100.00
49627;BME280;35527;54.616;39.786;2023-07-13T03:31:20;99074.00;;;12.69;100.00
49627;BME280;35527;54.616;39.786;2023-07-13T03:34:23;99057.59;;;12.69;100.00
49627;BME280;35527;54.616;39.786;2023-07-13T03:37:27;99075.22;;;12.92;100.00
49627;BME280;35527;54.616;39.786;2023-07-13T03:40:31;99058.78;;;13.06;100.00
49627;BME280;35527;54.616;39.786;2023-07-13T03:43:41;99060.06;;;13.27;100.00
49627;BME280;35527;54.616;39.786;2023-07-13T03:46:46;99048.03;;;13.26;100.00
49627;BME280;35527;54.616;39.786;2023-07-13T03:49:49;99062.38;;;13.46;100.00
49627;BME280;35527;54.616;39.786;2023-07-13T03:52:52;99049.13;;;13.37;100.00
49627;BME280;35527;54.616;39.786;2023-07-13T03:55:58;99037.22;;;13.47;100.00
49627;BME280;35527;54.616;39.786;2023-07-13T03:59:02;99056.09;;;13.63;100.00
49627;BME280;35527;54.616;39.786;2023-07-13T04:02:05;99059.59;;;13.77;100.00
49627;BME280;35527;54.616;39.786;2023-07-13T04:05:09;99055.88;;;13.93;100.00
49627;BME280;35527;54.616;39.786;2023-07-13T04:08:14;99056.53;;;13.97;100.00
49627;BME280;35527;54.616;39.786;2023-07-13T04:11:18;99053.09;;;13.96;100.00
49627;BME280;35527;54.616;39.786;2023-07-13T04:14:25;99050.50;;;13.96;100.00
49627;BME280;35527;54.616;39.786;2023-07-13T04:17:32;99043.31;;;14.00;100.00
49627;BME280;35527;54.616;39.786;2023-07-13T04:20:35;99055.53;;;14.12;100.00
49627;BME280;35527;54.616;39.786;2023-07-13T04:23:39;99036.56;;;13.97;100.00
49627;BME280;35527;54.616;39.786;2023-07-13T04:26:43;99045.72;;;14.03;100.00
49627;BME280;35527;54.616;39.786;2023-07-13T04:29:47;99043.66;;;14.08;100.00
49627;BME280;35527;54.616;39.786;2023-07-13T04:32:52;99051.88;;;14.15;100.00
49627;BME280;35527;54.616;39.786;2023-07-13T04:35:55;99065.84;;;14.27;100.00
49627;BME280;35527;54.616;39.786;2023-07-13T04:39:03;99062.69;;;14.09;100.00
49627;BME280;35527;54.616;39.786;2023-07-13T04:42:06;99071.75;;;14.16;100.00
49627;BME280;35527;54.616;39.786;2023-07-13T04:45:11;99080.19;;;14.07;100.00
49627;BME280;35527;54.616;39.786;2023-07-13T04:48:15;99087.97;;;14.07;100.00
49627;BME280;35527;54.616;39.786;2023-07-13T04:51:20;99076.41;;;13.98;100.00
49627;BME280;35527;54.616;39.786;2023-07-13T04:54:23;99070.78;;;13.91;100.00
49627;BME280;35527;54.616;39.786;2023-07-13T04:57:27;99070.00;;;13.77;100.00
49627;BME280;35527;54.616;39.786;2023-07-13T05:00:31;99072.69;;;13.75;100.00
49627;BME280;35527;54.616;39.786;2023-07-13T05:03:35;99069.25;;;13.74;100.00
49627;BME280;35527;54.616;39.786;2023-07-13T05:06:40;99059.97;;;13.70;100.00
49627;BME280;35527;54.616;39.786;2023-07-13T05:09:45;99062.91;;;13.79;100.00
49627;BME280;35527;54.616;39.786;2023-07-13T05:12:47;99027.34;;;13.52;100.00
49627;BME280;35527;54.616;39.786;2023-07-13T05:16:02;99069.53;;;13.70;100.00
49627;BME280;35527;54.616;39.786;2023-07-13T05:19:06;99063.28;;;13.60;100.00
49627;BME280;35527;54.616;39.786;2023-07-13T05:22:12;99056.84;;;13.65;100.00
49627;BME280;35527;54.616;39.786;2023-07-13T05:25:16;99049.13;;;13.64;100.00
49627;BME280;35527;54.616;39.786;2023-07-13T05:28:19;99040.50;;;13.63;100.00
49627;BME280;35527;54.616;39.786;2023-07-13T05:31:24;99069.69;;;13.81;100.00
49627;BME280;35527;54.616;39.786;2023-07-13T05:34:28;99076.91;;;13.90;100.00
49627;BME280;35527;54.616;39.786;2023-07-13T05:37:32;99054.53;;;13.88;100.00
49627;BME280;35527;54.616;39.786;2023-07-13T05:40:35;99061.22;;;14.05;100.00
49627;BME280;35527;54.616;39.786;2023-07-13T05:43:57;99081.59;;;14.38;100.00
49627;BME280;35527;54.616;39.786;2023-07-13T05:47:00;99060.88;;;14.49;100.00
49627;BME280;35527;54.616;39.786;2023-07-13T05:50:06;99075.38;;;14.79;100.00
49627;BME280;35527;54.616;39.786;2023-07-13T05:53:11;99076.63;;;15.12;100.00
49627;BME280;35527;54.616;39.786;2023-07-13T05:56:15;99065.41;;;15.35;99.80
49627;BME280;35527;54.616;39.786;2023-07-13T05:59:19;99062.41;;;15.65;98.19
49627;BME280;35527;54.616;39.786;2023-07-13T06:02:21;99056.69;;;15.84;95.66
49627;BME280;35527;54.616;39.786;2023-07-13T06:05:25;99050.75;;;15.82;94.23
49627;BME280;35527;54.616;39.786;2023-07-13T06:08:28;99042.22;;;15.80;95.08
49627;BME280;35527;54.616;39.786;2023-07-13T06:11:35;99066.63;;;15.79;94.90
49627;BME280;35527;54.616;39.786;2023-07-13T06:14:38;99059.53;;;15.81;95.50
49627;BME280;35527;54.616;39.786;2023-07-13T06:17:43;99081.75;;;15.87;94.94
49627;BME280;35527;54.616;39.786;2023-07-13T06:20:46;99089.69;;;15.85;95.17
49627;BME280;35527;54.616;39.786;2023-07-13T06:23:51;99090.97;;;15.80;94.17
49627;BME280;35527;54.616;39.786;2023-07-13T06:26:54;99081.09;;;15.72;94.50
49627;BME280;35527;54.616;39.786;2023-07-13T06:29:59;99070.28;;;15.76;94.47
49627;BME280;35527;54.616;39.786;2023-07-13T06:33:03;99065.81;;;15.79;94.48
49627;BME280;35527;54.616;39.786;2023-07-13T06:36:08;99065.34;;;15.85;93.59
49627;BME280;35527;54.616;39.786;2023-07-13T06:39:13;99061.91;;;15.84;94.35
49627;BME280;35527;54.616;39.786;2023-07-13T06:42:18;99080.91;;;15.86;93.80
49627;BME280;35527;54.616;39.786;2023-07-13T06:45:20;99055.50;;;15.64;94.77
49627;BME280;35527;54.616;39.786;2023-07-13T06:48:25;99074.09;;;15.72;94.65
49627;BME280;35527;54.616;39.786;2023-07-13T06:51:28;99072.19;;;15.74;96.38
49627;BME280;35527;54.616;39.786;2023-07-13T06:54:35;99058.56;;;15.71;95.54
49627;BME280;35527;54.616;39.786;2023-07-13T06:57:38;99077.88;;;16.39;92.98
49627;BME280;35527;54.616;39.786;2023-07-13T07:00:41;99076.72;;;17.78;84.53
49627;BME280;35527;54.616;39.786;2023-07-13T07:03:45;99053.78;;;17.59;81.02
49627;BME280;35527;54.616;39.786;2023-07-13T07:06:50;99065.19;;;17.03;85.01
49627;BME280;35527;54.616;39.786;2023-07-13T07:09:52;99069.63;;;16.67;89.78
49627;BME280;35527;54.616;39.786;2023-07-13T07:12:56;99072.09;;;16.47;91.49
49627;BME280;35527;54.616;39.786;2023-07-13T07:16:00;99076.16;;;16.73;91.09
49627;BME280;35527;54.616;39.786;2023-07-13T07:19:03;99072.66;;;16.85;90.65
49627;BME280;35527;54.616;39.786;2023-07-13T07:22:05;99076.81;;;17.10;90.86
49627;BME280;35527;54.616;39.786;2023-07-13T07:25:08;99076.22;;;17.29;88.43
49627;BME280;35527;54.616;39.786;2023-07-13T07:28:15;99085.56;;;17.54;87.82
49627;BME280;35527;54.616;39.786;2023-07-13T07:31:24;99066.91;;;17.48;85.12
49627;BME280;35527;54.616;39.786;2023-07-13T07:34:32;99065.00;;;17.50;84.75
49627;BME280;35527;54.616;39.786;2023-07-13T07:37:34;99074.19;;;17.76;84.51
49627;BME280;35527;54.616;39.786;2023-07-13T07:40:40;99080.72;;;17.93;83.00
49627;BME280;35527;54.616;39.786;2023-07-13T07:43:47;99095.56;;;17.49;84.30
49627;BME280;35527;54.616;39.786;2023-07-13T07:46:51;99100.72;;;17.17;87.59
49627;BME280;35527;54.616;39.786;2023-07-13T07:49:55;99103.09;;;16.98;89.73
49627;BME280;35527;54.616;39.786;2023-07-13T07:52:59;99077.41;;;16.80;89.55
49627;BME280;35527;54.616;39.786;2023-07-13T07:56:06;99042.72;;;16.89;90.62
49627;BME280;35527;54.616;39.786;2023-07-13T07:59:30;99080.88;;;17.03;90.18
49627;BME280;35527;54.616;39.786;2023-07-13T08:02:57;99074.31;;;17.20;89.82
49627;BME280;35527;54.616;39.786;2023-07-13T08:06:22;99090.34;;;16.93;90.90
49627;BME280;35527;54.616;39.786;2023-07-13T08:09:29;99072.28;;;16.79;91.21
49627;BME280;35527;54.616;39.786;2023-07-13T08:12:38;99070.63;;;16.78;91.13
49627;BME280;35527;54.616;39.786;2023-07-13T08:15:45;99057.19;;;16.71;90.62
49627;BME280;35527;54.616;39.786;2023-07-13T08:18:49;99071.19;;;16.70;91.31
49627;BME280;35527;54.616;39.786;2023-07-13T08:21:52;99045.88;;;16.71;91.84
49627;BME280;35527;54.616;39.786;2023-07-13T08:24:55;99056.38;;;16.93;91.75
49627;BME280;35527;54.616;39.786;2023-07-13T08:27:59;99059.81;;;17.27;90.84
49627;BME280;35527;54.616;39.786;2023-07-13T08:31:08;99062.72;;;17.45;88.30
49627;BME280;35527;54.616;39.786;2023-07-13T08:34:12;99062.25;;;17.63;87.26
49627;BME280;35527;54.616;39.786;2023-07-13T08:37:18;99070.28;;;17.82;85.20
49627;BME280;35527;54.616;39.786;2023-07-13T08:40:25;99070.28;;;17.71;84.67
49627;BME280;35527;54.616;39.786;2023-07-13T08:43:36;99074.34;;;17.75;84.96
49627;BME280;35527;54.616;39.786;2023-07-13T08:46:41;99066.88;;;17.59;85.32
49627;BME280;35527;54.616;39.786;2023-07-13T08:49:45;99071.09;;;17.83;85.22
49627;BME280;35527;54.616;39.786;2023-07-13T08:52:49;99060.78;;;17.81;84.91
49627;BME280;35527;54.616;39.786;2023-07-13T08:55:57;99067.56;;;17.72;85.61
49627;BME280;35527;54.616;39.786;2023-07-13T08:59:06;99053.91;;;17.80;86.45
49627;BME280;35527;54.616;39.786;2023-07-13T09:02:39;99085.94;;;17.93;83.63
49627;BME280;35527;54.616;39.786;2023-07-13T09:05:49;99079.59;;;17.64;82.66
49627;BME280;35527;54.616;39.786;2023-07-13T09:09:02;99090.19;;;17.51;84.46
49627;BME280;35527;54.616;39.786;2023-07-13T09:12:19;99043.63;;;17.22;85.66
49627;BME280;35527;54.616;39.786;2023-07-13T09:15:30;99100.91;;;17.37;83.09
49627;BME280;35527;54.616;39.786;2023-07-13T09:18:49;99080.50;;;16.97;85.77
49627;BME280;35527;54.616;39.786;2023-07-13T09:21:55;99085.38;;;16.90;87.12
49627;BME280;35527;54.616;39.786;2023-07-13T09:28:23;99116.97;;;16.87;89.96
49627;BME280;35527;54.616;39.786;2023-07-13T09:31:34;99106.16;;;16.80;90.52
49627;BME280;35527;54.616;39.786;2023-07-13T09:34:38;99094.34;;;16.63;93.39
49627;BME280;35527;54.616;39.786;2023-07-13T09:37:46;99087.19;;;16.43;93.76
49627;BME280;35527;54.616;39.786;2023-07-13T09:44:14;99088.16;;;16.18;100.00
49627;BME280;35527;54.616;39.786;2023-07-13T09:50:28;99061.00;;;16.78;99.36
49627;BME280;35527;54.616;39.786;2023-07-13T09:53:31;99072.88;;;17.16;96.53
49627;BME280;35527;54.616;39.786;2023-07-13T09:56:35;99092.25;;;17.36;95.52
49627;BME280;35527;54.616;39.786;2023-07-13T09:59:45;99073.44;;;17.53;95.89
49627;BME280;35527;54.616;39.786;2023-07-13T10:03:05;99097.66;;;17.67;94.80
49627;BME280;35527;54.616;39.786;2023-07-13T10:06:16;99073.66;;;17.50;92.54
49627;BME280;35527;54.616;39.786;2023-07-13T10:09:19;99105.56;;;17.44;94.38
49627;BME280;35527;54.616;39.786;2023-07-13T10:12:24;99082.59;;;17.37;93.97
49627;BME280;35527;54.616;39.786;2023-07-13T10:15:28;99089.63;;;17.25;94.20
49627;BME280;35527;54.616;39.786;2023-07-13T10:21:52;99086.44;;;17.10;95.51
49627;BME280;35527;54.616;39.786;2023-07-13T10:24:57;99084.63;;;17.33;93.98
49627;BME280;35527;54.616;39.786;2023-07-13T10:31:30;99070.38;;;17.37;93.09
49627;BME280;35527;54.616;39.786;2023-07-13T10:34:33;99091.69;;;17.87;93.73
49627;BME280;35527;54.616;39.786;2023-07-13T10:37:53;99104.91;;;18.18;92.30
49627;BME280;35527;54.616;39.786;2023-07-13T10:41:05;99114.91;;;18.66;90.91
49627;BME280;35527;54.616;39.786;2023-07-13T10:44:24;99090.19;;;19.10;87.78
49627;BME280;35527;54.616;39.786;2023-07-13T10:47:30;99094.19;;;19.55;82.25
49627;BME280;35527;54.616;39.786;2023-07-13T10:50:37;99087.69;;;19.49;70.96
49627;BME280;35527;54.616;39.786;2023-07-13T10:53:43;99093.25;;;19.25;65.58
49627;BME280;35527;54.616;39.786;2023-07-13T10:56:53;99105.78;;;19.12;66.49
49627;BME280;35527;54.616;39.786;2023-07-13T11:00:17;99094.38;;;18.71;56.53
49627;BME280;35527;54.616;39.786;2023-07-13T11:03:23;99066.19;;;18.42;53.86
49627;BME280;35527;54.616;39.786;2023-07-13T11:06:37;99091.66;;;17.98;55.01
49627;BME280;35527;54.616;39.786;2023-07-13T11:09:51;99097.19;;;17.62;57.80
49627;BME280;35527;54.616;39.786;2023-07-13T11:12:58;99111.84;;;17.42;58.93
49627;BME280;35527;54.616;39.786;2023-07-13T11:16:12;99099.59;;;17.42;60.05
49627;BME280;35527;54.616;39.786;2023-07-13T11:22:40;99088.00;;;17.90;60.43
49627;BME280;35527;54.616;39.786;2023-07-13T11:25:45;99091.91;;;17.95;60.72
49627;BME280;35527;54.616;39.786;2023-07-13T11:28:50;99089.66;;;17.91;58.30
49627;BME280;35527;54.616;39.786;2023-07-13T11:31:59;99085.59;;;17.98;58.84
49627;BME280;35527;54.616;39.786;2023-07-13T11:35:02;99080.88;;;18.34;60.34
49627;BME280;35527;54.616;39.786;2023-07-13T11:38:18;99106.22;;;18.44;59.87
49627;BME280;35527;54.616;39.786;2023-07-13T11:41:34;99098.78;;;18.71;60.05
49627;BME280;35527;54.616;39.786;2023-07-13T11:44:42;99081.72;;;18.55;59.01
49627;BME280;35527;54.616;39.786;2023-07-13T11:47:51;99084.34;;;18.55;57.62
49627;BME280;35527;54.616;39.786;2023-07-13T11:50:58;99109.41;;;18.48;58.67
49627;BME280;35527;54.616;39.786;2023-07-13T11:54:31;99064.84;;;18.06;59.83
49627;BME280;35527;54.616;39.786;2023-07-13T11:57:41;99090.78;;;18.09;60.12
49627;BME280;35527;54.616;39.786;2023-07-13T12:00:48;99093.34;;;18.20;61.08
49627;BME280;35527;54.616;39.786;2023-07-13T12:03:55;99101.31;;;18.19;63.01
49627;BME280;35527;54.616;39.786;2023-07-13T12:07:07;99084.22;;;18.15;64.21
49627;BME280;35527;54.616;39.786;2023-07-13T12:10:23;99067.78;;;17.92;66.38
49627;BME280;35527;54.616;39.786;2023-07-13T12:13:27;99108.88;;;18.12;67.37
49627;BME280;35527;54.616;39.786;2023-07-13T12:16:32;99105.31;;;18.02;70.35
49627;BME280;35527;54.616;39.786;2023-07-13T12:19:41;99097.06;;;17.86;73.14
49627;BME280;35527;54.616;39.786;2023-07-13T12:22:46;99096.09;;;17.75;75.35
49627;BME280;35527;54.616;39.786;2023-07-13T12:25:50;99090.03;;;17.75;78.16
49627;BME280;35527;54.616;39.786;2023-07-13T12:28:54;99101.84;;;17.81;79.53
49627;BME280;35527;54.616;39.786;2023-07-13T12:32:01;99082.69;;;17.80;80.45
49627;BME280;35527;54.616;39.786;2023-07-13T12:35:15;99078.59;;;17.76;81.39
49627;BME280;35527;54.616;39.786;2023-07-13T12:38:18;99081.97;;;17.67;83.84
49627;BME280;35527;54.616;39.786;2023-07-13T12:41:24;99086.00;;;17.60;83.51
49627;BME280;35527;54.616;39.786;2023-07-13T12:44:30;99066.66;;;17.51;85.96
49627;BME280;35527;54.616;39.786;2023-07-13T12:47:42;99085.31;;;17.69;87.29
49627;BME280;35527;54.616;39.786;2023-07-13T12:50:47;99071.75;;;17.64;87.71
49627;BME280;35527;54.616;39.786;2023-07-13T12:54:07;99084.91;;;17.73;88.63
49627;BME280;35527;54.616;39.786;2023-07-13T12:57:16;99082.19;;;17.75;88.73
49627;BME280;35527;54.616;39.786;2023-07-13T13:00:28;99061.50;;;17.72;89.19
49627;BME280;35527;54.616;39.786;2023-07-13T13:03:36;99080.66;;;17.84;89.02
49627;BME280;35527;54.616;39.786;2023-07-13T13:06:39;99068.03;;;17.77;89.57
49627;BME280;35527;54.616;39.786;2023-07-13T13:09:45;99071.34;;;17.79;88.86
49627;BME280;35527;54.616;39.786;2023-07-13T13:12:50;99078.38;;;17.79;89.61
49627;BME280;35527;54.616;39.786;2023-07-13T13:15:55;99058.41;;;17.67;88.07
49627;BME280;35527;54.616;39.786;2023-07-13T13:19:05;99062.19;;;17.74;86.82
49627;BME280;35527;54.616;39.786;2023-07-13T13:22:16;99068.53;;;17.71;85.68
49627;BME280;35527;54.616;39.786;2023-07-13T13:25:20;99077.44;;;17.69;81.81
49627;BME280;35527;54.616;39.786;2023-07-13T13:28:22;99060.13;;;17.45;75.31
49627;BME280;35527;54.616;39.786;2023-07-13T13:31:25;99063.38;;;17.38;64.29
49627;BME280;35527;54.616;39.786;2023-07-13T13:34:29;99083.00;;;17.21;64.22
49627;BME280;35527;54.616;39.786;2023-07-13T13:37:34;99092.47;;;16.88;64.38
49627;BME280;35527;54.616;39.786;2023-07-13T13:40:37;99100.50;;;16.74;62.57
49627;BME280;35527;54.616;39.786;2023-07-13T13:43:43;99114.75;;;16.58;63.36
49627;BME280;35527;54.616;39.786;2023-07-13T13:46:50;99123.97;;;16.40;71.81
49627;BME280;35527;54.616;39.786;2023-07-13T13:49:56;99136.34;;;16.14;80.26
49627;BME280;35527;54.616;39.786;2023-07-13T13:52:58;99125.41;;;15.59;95.63
49627;BME280;35527;54.616;39.786;2023-07-13T13:56:01;99165.34;;;15.10;100.00
49627;BME280;35527;54.616;39.786;2023-07-13T13:59:04;99164.69;;;14.68;100.00
49627;BME280;35527;54.616;39.786;2023-07-13T14:02:29;99150.56;;;14.45;100.00
49627;BME280;35527;54.616;39.786;2023-07-13T14:05:33;99178.41;;;14.30;100.00
49627;BME280;35527;54.616;39.786;2023-07-13T14:08:36;99173.81;;;14.21;100.00
49627;BME280;35527;54.616;39.786;2023-07-13T14:11:42;99186.63;;;14.24;100.00
49627;BME280;35527;54.616;39.786;2023-07-13T14:14:48;99167.34;;;14.14;100.00
49627;BME280;35527;54.616;39.786;2023-07-13T14:17:53;99167.97;;;14.17;100.00
49627;BME280;35527;54.616;39.786;2023-07-13T14:20:56;99185.25;;;14.18;100.00
49627;BME280;35527;54.616;39.786;2023-07-13T14:24:01;99172.63;;;14.12;100.00
49627;BME280;35527;54.616;39.786;2023-07-13T14:27:04;99181.78;;;14.05;100.00
49627;BME280;35527;54.616;39.786;2023-07-13T14:30:15;99156.28;;;13.83;100.00
49627;BME280;35527;54.616;39.786;2023-07-13T14:33:18;99167.66;;;13.95;100.00
49627;BME280;35527;54.616;39.786;2023-07-13T14:36:31;99148.75;;;13.79;100.00
49627;BME280;35527;54.616;39.786;2023-07-13T14:39:34;99165.44;;;13.89;100.00
49627;BME280;35527;54.616;39.786;2023-07-13T14:42:37;99139.88;;;13.68;100.00
49627;BME280;35527;54.616;39.786;2023-07-13T14:45:48;99158.06;;;13.68;100.00
49627;BME280;35527;54.616;39.786;2023-07-13T14:52:28;99158.91;;;13.69;100.00
49627;BME280;35527;54.616;39.786;2023-07-13T14:55:31;99163.91;;;13.72;100.00
49627;BME280;35527;54.616;39.786;2023-07-13T14:58:39;99164.84;;;13.71;100.00
49627;BME280;35527;54.616;39.786;2023-07-13T15:01:45;99146.84;;;13.68;100.00
49627;BME280;35527;54.616;39.786;2023-07-13T15:04:49;99151.25;;;13.80;100.00
49627;BME280;35527;54.616;39.786;2023-07-13T15:07:53;99145.66;;;13.86;100.00
49627;BME280;35527;54.616;39.786;2023-07-13T15:11:00;99125.66;;;13.74;100.00
49627;BME280;35527;54.616;39.786;2023-07-13T15:14:04;99124.81;;;13.73;100.00
49627;BME280;35527;54.616;39.786;2023-07-13T15:17:44;99148.28;;;13.86;100.00
49627;BME280;35527;54.616;39.786;2023-07-13T15:20:45;99142.63;;;13.80;100.00
49627;BME280;35527;54.616;39.786;2023-07-13T15:23:50;99148.09;;;13.75;100.00
49627;BME280;35527;54.616;39.786;2023-07-13T15:26:53;99151.53;;;13.75;100.00
49627;BME280;35527;54.616;39.786;2023-07-13T15:29:57;99144.56;;;13.76;100.00
49627;BME280;35527;54.616;39.786;2023-07-13T15:33:16;99123.91;;;13.60;100.00
49627;BME280;35527;54.616;39.786;2023-07-13T15:36:22;99144.88;;;13.71;100.00
49627;BME280;35527;54.616;39.786;2023-07-13T15:39:33;99134.13;;;13.63;100.00
49627;BME280;35527;54.616;39.786;2023-07-13T15:42:40;99142.94;;;13.61;100.00
49627;BME280;35527;54.616;39.786;2023-07-13T15:45:44;99115.78;;;13.38;100.00
49627;BME280;35527;54.616;39.786;2023-07-13T15:48:50;99143.22;;;13.56;100.00
49627;BME280;35527;54.616;39.786;2023-07-13T15:51:53;99128.69;;;13.39;100.00
49627;BME280;35527;54.616;39.786;2023-07-13T15:54:59;99144.34;;;13.52;100.00
49627;BME280;35527;54.616;39.786;2023-07-13T15:58:03;99151.50;;;13.48;100.00
49627;BME280;35527;54.616;39.786;2023-07-13T16:01:10;99139.81;;;13.41;100.00
49627;BME280;35527;54.616;39.786;2023-07-13T16:04:15;99121.91;;;13.37;100.00
49627;BME280;35527;54.616;39.786;2023-07-13T16:07:19;99144.63;;;13.47;100.00
49627;BME280;35527;54.616;39.786;2023-07-13T16:10:34;99140.47;;;13.45;100.00
49627;BME280;35527;54.616;39.786;2023-07-13T16:13:39;99131.56;;;13.35;100.00
49627;BME280;35527;54.616;39.786;2023-07-13T16:16:44;99149.09;;;13.31;100.00
49627;BME280;35527;54.616;39.786;2023-07-13T16:19:48;99115.69;;;13.11;100.00
49627;BME280;35527;54.616;39.786;2023-07-13T16:22:53;99127.47;;;13.16;100.00
49627;BME280;35527;54.616;39.786;2023-07-13T16:25:56;99120.88;;;13.11;100.00
49627;BME280;35527;54.616;39.786;2023-07-13T16:29:03;99134.41;;;13.16;100.00
49627;BME280;35527;54.616;39.786;2023-07-13T16:32:10;99140.59;;;13.13;100.00
49627;BME280;35527;54.616;39.786;2023-07-13T16:35:13;99122.16;;;13.03;100.00